sensor_id;sensor_type;location;lat;lon;timestamp;P1;durP1;ratioP1;P2;durP2;ratioP2
13061;SDS011;6597;52.218;9.882;2024-02-04T00:01:20;12.83;;;4.23;;
13061;SDS011;6597;52.218;9.882;2024-02-04T00:03:46;9.77;;;4.20;;
13061;SDS011;6597;52.218;9.882;2024-02-04T00:06:14;7.57;;;3.37;;
13061;SDS011;6597;52.218;9.882;2024-02-04T00:08:41;8.47;;;3.50;;
13061;SDS011;6597;52.218;9.882;2024-02-04T00:11:07;15.03;;;4.30;;
13061;SDS011;6597;52.218;9.882;2024-02-04T00:13:37;15.40;;;4.00;;
13061;SDS011;6597;52.218;9.882;2024-02-04T00:16:03;8.57;;;3.30;;
13061;SDS011;6597;52.218;9.882;2024-02-04T00:18:30;7.83;;;2.87;;
13061;SDS011;6597;52.218;9.882;2024-02-04T00:20:57;12.97;;;3.90;;
13061;SDS011;6597;52.218;9.882;2024-02-04T00:23:25;10.93;;;3.80;;
13061;SDS011;6597;52.218;9.882;2024-02-04T00:25:51;9.03;;;3.70;;
13061;SDS011;6597;52.218;9.882;2024-02-04T00:28:18;9.70;;;3.37;;
13061;SDS011;6597;52.218;9.882;2024-02-04T00:30:45;11.60;;;3.83;;
13061;SDS011;6597;52.218;9.882;2024-02-04T00:33:14;8.27;;;3.03;;
13061;SDS011;6597;52.218;9.882;2024-02-04T00:35:41;12.80;;;4.00;;
13061;SDS011;6597;52.218;9.882;2024-02-04T00:38:07;10.37;;;4.00;;
13061;SDS011;6597;52.218;9.882;2024-02-04T00:40:35;10.87;;;4.10;;
13061;SDS011;6597;52.218;9.882;2024-02-04T00:43:02;9.17;;;3.73;;
13061;SDS011;6597;52.218;9.882;2024-02-04T00:45:29;12.47;;;4.10;;
13061;SDS011;6597;52.218;9.882;2024-02-04T00:47:55;10.37;;;4.30;;
13061;SDS011;6597;52.218;9.882;2024-02-04T00:50:22;10.80;;;4.53;;
13061;SDS011;6597;52.218;9.882;2024-02-04T00:52:48;10.40;;;4.33;;
13061;SDS011;6597;52.218;9.882;2024-02-04T00:55:15;9.77;;;3.80;;
13061;SDS011;6597;52.218;9.882;2024-02-04T00:57:43;10.90;;;3.90;;
13061;SDS011;6597;52.218;9.882;2024-02-04T01:00:10;12.03;;;3.80;;
13061;SDS011;6597;52.218;9.882;2024-02-04T01:02:38;10.07;;;3.33;;
13061;SDS011;6597;52.218;9.882;2024-02-04T01:05:05;12.27;;;3.73;;
13061;SDS011;6597;52.218;9.882;2024-02-04T01:07:32;14.07;;;4.43;;
13061;SDS011;6597;52.218;9.882;2024-02-04T01:09:59;11.77;;;3.67;;
13061;SDS011;6597;52.218;9.882;2024-02-04T01:12:25;17.27;;;4.57;;
13061;SDS011;6597;52.218;9.882;2024-02-04T01:14:53;10.80;;;3.53;;
13061;SDS011;6597;52.218;9.882;2024-02-04T01:17:19;14.23;;;4.40;;
13061;SDS011;6597;52.218;9.882;2024-02-04T01:19:46;15.13;;;4.73;;
13061;SDS011;6597;52.218;9.882;2024-02-04T01:22:13;14.30;;;4.73;;
13061;SDS011;6597;52.218;9.882;2024-02-04T01:24:39;12.10;;;4.57;;
13061;SDS011;6597;52.218;9.882;2024-02-04T01:27:06;14.87;;;4.33;;
13061;SDS011;6597;52.218;9.882;2024-02-04T01:29:33;15.33;;;5.10;;
13061;SDS011;6597;52.218;9.882;2024-02-04T01:32:01;12.77;;;4.87;;
13061;SDS011;6597;52.218;9.882;2024-02-04T01:34:27;13.07;;;5.33;;
13061;SDS011;6597;52.218;9.882;2024-02-04T01:36:54;12.23;;;4.67;;
13061;SDS011;6597;52.218;9.882;2024-02-04T01:39:21;16.70;;;5.50;;
13061;SDS011;6597;52.218;9.882;2024-02-04T01:41:47;18.33;;;5.27;;
13061;SDS011;6597;52.218;9.882;2024-02-04T01:44:14;14.33;;;4.83;;
13061;SDS011;6597;52.218;9.882;2024-02-04T01:46:41;13.57;;;5.10;;
13061;SDS011;6597;52.218;9.882;2024-02-04T01:49:10;13.40;;;4.90;;
13061;SDS011;6597;52.218;9.882;2024-02-04T01:51:38;13.73;;;5.10;;
13061;SDS011;6597;52.218;9.882;2024-02-04T01:54:05;13.53;;;4.90;;
13061;SDS011;6597;52.218;9.882;2024-02-04T01:56:33;10.67;;;4.30;;
13061;SDS011;6597;52.218;9.882;2024-02-04T01:59:00;12.13;;;4.63;;
13061;SDS011;6597;52.218;9.882;2024-02-04T02:01:28;8.13;;;3.90;;
13061;SDS011;6597;52.218;9.882;2024-02-04T02:03:55;20.60;;;6.43;;
13061;SDS011;6597;52.218;9.882;2024-02-04T02:06:23;15.60;;;4.77;;
13061;SDS011;6597;52.218;9.882;2024-02-04T02:08:50;14.40;;;4.77;;
13061;SDS011;6597;52.218;9.882;2024-02-04T02:11:19;15.30;;;5.57;;
13061;SDS011;6597;52.218;9.882;2024-02-04T02:13:54;14.57;;;5.37;;
13061;SDS011;6597;52.218;9.882;2024-02-04T02:16:26;9.00;;;5.13;;
13061;SDS011;6597;52.218;9.882;2024-02-04T02:18:58;14.37;;;6.53;;
13061;SDS011;6597;52.218;9.882;2024-02-04T02:21:35;15.87;;;6.73;;
13061;SDS011;6597;52.218;9.882;2024-02-04T02:24:11;15.13;;;7.10;;
13061;SDS011;6597;52.218;9.882;2024-02-04T02:26:45;14.17;;;6.33;;
13061;SDS011;6597;52.218;9.882;2024-02-04T02:29:12;18.03;;;6.57;;
13061;SDS011;6597;52.218;9.882;2024-02-04T02:31:38;16.57;;;7.10;;
13061;SDS011;6597;52.218;9.882;2024-02-04T02:34:08;13.10;;;6.60;;
13061;SDS011;6597;52.218;9.882;2024-02-04T02:36:36;13.00;;;6.10;;
13061;SDS011;6597;52.218;9.882;2024-02-04T02:39:12;19.10;;;7.73;;
13061;SDS011;6597;52.218;9.882;2024-02-04T02:41:42;16.30;;;7.67;;
13061;SDS011;6597;52.218;9.882;2024-02-04T02:44:12;15.03;;;7.00;;
13061;SDS011;6597;52.218;9.882;2024-02-04T02:46:39;15.07;;;6.77;;
13061;SDS011;6597;52.218;9.882;2024-02-04T02:49:07;15.37;;;6.70;;
13061;SDS011;6597;52.218;9.882;2024-02-04T02:51:34;14.77;;;6.77;;
13061;SDS011;6597;52.218;9.882;2024-02-04T02:54:01;16.90;;;6.13;;
13061;SDS011;6597;52.218;9.882;2024-02-04T02:56:27;15.97;;;5.93;;
13061;SDS011;6597;52.218;9.882;2024-02-04T02:58:54;12.83;;;5.60;;
13061;SDS011;6597;52.218;9.882;2024-02-04T03:01:22;10.83;;;5.37;;
13061;SDS011;6597;52.218;9.882;2024-02-04T03:03:49;14.77;;;6.23;;
13061;SDS011;6597;52.218;9.882;2024-02-04T03:06:15;16.50;;;5.57;;
13061;SDS011;6597;52.218;9.882;2024-02-04T03:08:42;13.40;;;5.60;;
13061;SDS011;6597;52.218;9.882;2024-02-04T03:11:09;13.57;;;5.10;;
13061;SDS011;6597;52.218;9.882;2024-02-04T03:13:37;16.10;;;6.23;;
13061;SDS011;6597;52.218;9.882;2024-02-04T03:16:04;14.53;;;6.33;;
13061;SDS011;6597;52.218;9.882;2024-02-04T03:18:38;14.60;;;5.80;;
13061;SDS011;6597;52.218;9.882;2024-02-04T03:21:11;15.37;;;5.70;;
13061;SDS011;6597;52.218;9.882;2024-02-04T03:23:38;17.57;;;5.77;;
13061;SDS011;6597;52.218;9.882;2024-02-04T03:26:04;10.33;;;5.10;;
13061;SDS011;6597;52.218;9.882;2024-02-04T03:28:31;17.60;;;5.43;;
13061;SDS011;6597;52.218;9.882;2024-02-04T03:30:58;16.47;;;5.70;;
13061;SDS011;6597;52.218;9.882;2024-02-04T03:33:25;15.30;;;5.87;;
13061;SDS011;6597;52.218;9.882;2024-02-04T03:35:52;14.70;;;5.60;;
13061;SDS011;6597;52.218;9.882;2024-02-04T03:38:19;15.33;;;5.87;;
13061;SDS011;6597;52.218;9.882;2024-02-04T03:40:45;15.73;;;6.30;;
13061;SDS011;6597;52.218;9.882;2024-02-04T03:43:14;18.37;;;7.07;;
13061;SDS011;6597;52.218;9.882;2024-02-04T03:45:41;16.50;;;6.53;;
13061;SDS011;6597;52.218;9.882;2024-02-04T03:48:07;22.17;;;7.30;;
13061;SDS011;6597;52.218;9.882;2024-02-04T03:50:35;17.17;;;7.30;;
13061;SDS011;6597;52.218;9.882;2024-02-04T03:53:03;18.50;;;7.17;;
13061;SDS011;6597;52.218;9.882;2024-02-04T03:55:29;15.60;;;7.20;;
13061;SDS011;6597;52.218;9.882;2024-02-04T03:57:56;16.13;;;6.90;;
13061;SDS011;6597;52.218;9.882;2024-02-04T04:00:23;17.77;;;7.03;;
13061;SDS011;6597;52.218;9.882;2024-02-04T04:02:50;17.20;;;7.40;;
13061;SDS011;6597;52.218;9.882;2024-02-04T04:05:17;18.67;;;7.00;;
13061;SDS011;6597;52.218;9.882;2024-02-04T04:07:43;16.93;;;6.60;;
13061;SDS011;6597;52.218;9.882;2024-02-04T04:10:11;15.73;;;5.93;;
13061;SDS011;6597;52.218;9.882;2024-02-04T04:12:38;12.23;;;5.33;;
13061;SDS011;6597;52.218;9.882;2024-02-04T04:15:05;19.93;;;6.60;;
13061;SDS011;6597;52.218;9.882;2024-02-04T04:17:32;15.83;;;6.30;;
13061;SDS011;6597;52.218;9.882;2024-02-04T04:19:58;14.13;;;6.13;;
13061;SDS011;6597;52.218;9.882;2024-02-04T04:22:25;22.20;;;6.17;;
13061;SDS011;6597;52.218;9.882;2024-02-04T04:24:51;11.57;;;5.97;;
13061;SDS011;6597;52.218;9.882;2024-02-04T04:27:19;17.40;;;6.77;;
13061;SDS011;6597;52.218;9.882;2024-02-04T04:29:46;22.40;;;6.50;;
13061;SDS011;6597;52.218;9.882;2024-02-04T04:32:12;16.90;;;6.53;;
13061;SDS011;6597;52.218;9.882;2024-02-04T04:34:39;9.20;;;5.80;;
13061;SDS011;6597;52.218;9.882;2024-02-04T04:37:05;12.57;;;5.80;;
13061;SDS011;6597;52.218;9.882;2024-02-04T04:39:32;13.53;;;5.33;;
13061;SDS011;6597;52.218;9.882;2024-02-04T04:41:59;15.10;;;5.67;;
13061;SDS011;6597;52.218;9.882;2024-02-04T04:44:26;14.50;;;6.20;;
13061;SDS011;6597;52.218;9.882;2024-02-04T04:46:53;13.77;;;5.47;;
13061;SDS011;6597;52.218;9.882;2024-02-04T04:49:20;9.73;;;4.97;;
13061;SDS011;6597;52.218;9.882;2024-02-04T04:51:46;9.60;;;5.30;;
13061;SDS011;6597;52.218;9.882;2024-02-04T04:54:13;9.67;;;5.10;;
13061;SDS011;6597;52.218;9.882;2024-02-04T04:56:39;10.00;;;4.67;;
13061;SDS011;6597;52.218;9.882;2024-02-04T04:59:06;10.90;;;4.63;;
13061;SDS011;6597;52.218;9.882;2024-02-04T05:01:34;9.50;;;5.10;;
13061;SDS011;6597;52.218;9.882;2024-02-04T05:04:01;9.03;;;4.90;;
13061;SDS011;6597;52.218;9.882;2024-02-04T05:06:27;7.90;;;4.50;;
13061;SDS011;6597;52.218;9.882;2024-02-04T05:08:54;10.37;;;4.67;;
13061;SDS011;6597;52.218;9.882;2024-02-04T05:11:20;11.07;;;4.70;;
13061;SDS011;6597;52.218;9.882;2024-02-04T05:13:47;7.33;;;3.97;;
13061;SDS011;6597;52.218;9.882;2024-02-04T05:16:13;10.53;;;4.23;;
13061;SDS011;6597;52.218;9.882;2024-02-04T05:18:41;8.10;;;3.80;;
13061;SDS011;6597;52.218;9.882;2024-02-04T05:21:08;10.57;;;4.33;;
13061;SDS011;6597;52.218;9.882;2024-02-04T05:23:36;5.83;;;3.50;;
13061;SDS011;6597;52.218;9.882;2024-02-04T05:26:03;8.90;;;3.93;;
13061;SDS011;6597;52.218;9.882;2024-02-04T05:28:30;7.50;;;3.33;;
13061;SDS011;6597;52.218;9.882;2024-02-04T05:30:56;7.70;;;3.10;;
13061;SDS011;6597;52.218;9.882;2024-02-04T05:33:23;12.80;;;3.93;;
13061;SDS011;6597;52.218;9.882;2024-02-04T05:35:51;8.50;;;3.60;;
13061;SDS011;6597;52.218;9.882;2024-02-04T05:38:17;8.37;;;2.97;;
13061;SDS011;6597;52.218;9.882;2024-02-04T05:40:44;7.00;;;2.87;;
13061;SDS011;6597;52.218;9.882;2024-02-04T05:43:10;7.63;;;3.27;;
13061;SDS011;6597;52.218;9.882;2024-02-04T05:45:37;9.27;;;3.20;;
13061;SDS011;6597;52.218;9.882;2024-02-04T05:48:06;7.80;;;3.10;;
13061;SDS011;6597;52.218;9.882;2024-02-04T05:50:33;8.67;;;3.20;;
13061;SDS011;6597;52.218;9.882;2024-02-04T05:53:00;7.80;;;2.97;;
13061;SDS011;6597;52.218;9.882;2024-02-04T05:55:28;6.43;;;2.87;;
13061;SDS011;6597;52.218;9.882;2024-02-04T05:57:54;11.50;;;2.83;;
13061;SDS011;6597;52.218;9.882;2024-02-04T06:00:21;7.10;;;3.13;;
13061;SDS011;6597;52.218;9.882;2024-02-04T06:02:48;7.13;;;2.90;;
13061;SDS011;6597;52.218;9.882;2024-02-04T06:05:14;4.27;;;2.47;;
13061;SDS011;6597;52.218;9.882;2024-02-04T06:07:42;8.00;;;2.60;;
13061;SDS011;6597;52.218;9.882;2024-02-04T06:10:10;4.70;;;2.33;;
13061;SDS011;6597;52.218;9.882;2024-02-04T06:12:36;6.07;;;2.43;;
13061;SDS011;6597;52.218;9.882;2024-02-04T06:15:06;7.07;;;2.30;;
13061;SDS011;6597;52.218;9.882;2024-02-04T06:17:38;3.10;;;1.80;;
13061;SDS011;6597;52.218;9.882;2024-02-04T06:20:05;6.07;;;2.00;;
13061;SDS011;6597;52.218;9.882;2024-02-04T06:22:32;5.53;;;2.07;;
13061;SDS011;6597;52.218;9.882;2024-02-04T06:25:00;5.90;;;2.00;;
13061;SDS011;6597;52.218;9.882;2024-02-04T06:27:28;8.63;;;2.20;;
13061;SDS011;6597;52.218;9.882;2024-02-04T06:29:55;6.03;;;2.27;;
13061;SDS011;6597;52.218;9.882;2024-02-04T06:32:21;6.23;;;2.27;;
13061;SDS011;6597;52.218;9.882;2024-02-04T06:34:49;7.37;;;2.40;;
13061;SDS011;6597;52.218;9.882;2024-02-04T06:37:16;5.87;;;2.00;;
13061;SDS011;6597;52.218;9.882;2024-02-04T06:39:42;7.83;;;2.23;;
13061;SDS011;6597;52.218;9.882;2024-02-04T06:42:09;4.23;;;2.20;;
13061;SDS011;6597;52.218;9.882;2024-02-04T06:44:37;6.20;;;2.20;;
13061;SDS011;6597;52.218;9.882;2024-02-04T06:47:04;6.90;;;2.30;;
13061;SDS011;6597;52.218;9.882;2024-02-04T06:49:31;7.30;;;2.30;;
13061;SDS011;6597;52.218;9.882;2024-02-04T06:51:57;6.90;;;1.90;;
13061;SDS011;6597;52.218;9.882;2024-02-04T06:54:24;5.47;;;1.73;;
13061;SDS011;6597;52.218;9.882;2024-02-04T06:56:50;6.83;;;2.10;;
13061;SDS011;6597;52.218;9.882;2024-02-04T06:59:17;5.50;;;2.27;;
13061;SDS011;6597;52.218;9.882;2024-02-04T07:01:45;7.23;;;2.23;;
13061;SDS011;6597;52.218;9.882;2024-02-04T07:04:12;7.57;;;2.20;;
13061;SDS011;6597;52.218;9.882;2024-02-04T07:06:38;6.87;;;2.33;;
13061;SDS011;6597;52.218;9.882;2024-02-04T07:09:06;10.47;;;2.30;;
13061;SDS011;6597;52.218;9.882;2024-02-04T07:11:33;5.90;;;2.13;;
13061;SDS011;6597;52.218;9.882;2024-02-04T07:13:59;6.87;;;2.30;;
13061;SDS011;6597;52.218;9.882;2024-02-04T07:16:26;6.07;;;1.97;;
13061;SDS011;6597;52.218;9.882;2024-02-04T07:18:54;7.50;;;2.07;;
13061;SDS011;6597;52.218;9.882;2024-02-04T07:21:21;5.00;;;1.97;;
13061;SDS011;6597;52.218;9.882;2024-02-04T07:23:47;6.60;;;1.80;;
13061;SDS011;6597;52.218;9.882;2024-02-04T07:26:14;5.43;;;1.73;;
13061;SDS011;6597;52.218;9.882;2024-02-04T07:28:40;7.90;;;2.00;;
13061;SDS011;6597;52.218;9.882;2024-02-04T07:31:07;5.57;;;1.90;;
13061;SDS011;6597;52.218;9.882;2024-02-04T07:33:34;9.43;;;1.90;;
13061;SDS011;6597;52.218;9.882;2024-02-04T07:36:02;8.00;;;1.90;;
13061;SDS011;6597;52.218;9.882;2024-02-04T07:38:28;6.87;;;2.03;;
13061;SDS011;6597;52.218;9.882;2024-02-04T07:40:55;7.50;;;1.87;;
13061;SDS011;6597;52.218;9.882;2024-02-04T07:43:24;7.50;;;2.27;;
13061;SDS011;6597;52.218;9.882;2024-02-04T07:45:50;7.43;;;1.90;;
13061;SDS011;6597;52.218;9.882;2024-02-04T07:48:17;8.67;;;2.23;;
13061;SDS011;6597;52.218;9.882;2024-02-04T07:50:44;7.67;;;2.30;;
13061;SDS011;6597;52.218;9.882;2024-02-04T07:53:12;6.23;;;2.37;;
13061;SDS011;6597;52.218;9.882;2024-02-04T07:55:39;8.00;;;2.10;;
13061;SDS011;6597;52.218;9.882;2024-02-04T07:58:05;7.73;;;1.80;;
13061;SDS011;6597;52.218;9.882;2024-02-04T08:00:32;8.57;;;2.43;;
13061;SDS011;6597;52.218;9.882;2024-02-04T08:02:58;6.13;;;1.67;;
13061;SDS011;6597;52.218;9.882;2024-02-04T08:05:25;7.47;;;2.07;;
13061;SDS011;6597;52.218;9.882;2024-02-04T08:07:51;6.03;;;1.93;;
13061;SDS011;6597;52.218;9.882;2024-02-04T08:10:19;5.17;;;1.67;;
13061;SDS011;6597;52.218;9.882;2024-02-04T08:12:46;8.93;;;2.13;;
13061;SDS011;6597;52.218;9.882;2024-02-04T08:15:15;7.93;;;2.13;;
13061;SDS011;6597;52.218;9.882;2024-02-04T08:17:42;6.30;;;1.80;;
13061;SDS011;6597;52.218;9.882;2024-02-04T08:20:09;10.10;;;2.50;;
13061;SDS011;6597;52.218;9.882;2024-02-04T08:22:36;8.57;;;2.03;;
13061;SDS011;6597;52.218;9.882;2024-02-04T08:25:03;7.27;;;1.90;;
13061;SDS011;6597;52.218;9.882;2024-02-04T08:27:32;9.33;;;2.30;;
13061;SDS011;6597;52.218;9.882;2024-02-04T08:29:59;9.63;;;2.17;;
13061;SDS011;6597;52.218;9.882;2024-02-04T08:32:25;9.67;;;2.57;;
13061;SDS011;6597;52.218;9.882;2024-02-04T08:34:52;6.83;;;1.93;;
13061;SDS011;6597;52.218;9.882;2024-02-04T08:37:18;7.50;;;1.80;;
13061;SDS011;6597;52.218;9.882;2024-02-04T08:39:45;6.03;;;1.47;;
13061;SDS011;6597;52.218;9.882;2024-02-04T08:42:11;10.17;;;2.47;;
13061;SDS011;6597;52.218;9.882;2024-02-04T08:44:39;9.03;;;1.83;;
13061;SDS011;6597;52.218;9.882;2024-02-04T08:47:06;10.30;;;2.00;;
13061;SDS011;6597;52.218;9.882;2024-02-04T08:49:35;14.23;;;3.40;;
13061;SDS011;6597;52.218;9.882;2024-02-04T08:52:02;7.83;;;2.37;;
13061;SDS011;6597;52.218;9.882;2024-02-04T08:54:28;7.43;;;2.07;;
13061;SDS011;6597;52.218;9.882;2024-02-04T08:56:55;6.27;;;1.43;;
13061;SDS011;6597;52.218;9.882;2024-02-04T08:59:22;14.60;;;2.60;;
13061;SDS011;6597;52.218;9.882;2024-02-04T09:01:50;8.43;;;2.20;;
13061;SDS011;6597;52.218;9.882;2024-02-04T09:04:17;8.40;;;1.80;;
13061;SDS011;6597;52.218;9.882;2024-02-04T09:06:43;11.33;;;2.10;;
13061;SDS011;6597;52.218;9.882;2024-02-04T09:09:10;9.47;;;1.97;;
13061;SDS011;6597;52.218;9.882;2024-02-04T09:11:37;8.87;;;2.20;;
13061;SDS011;6597;52.218;9.882;2024-02-04T09:14:03;9.43;;;1.73;;
13061;SDS011;6597;52.218;9.882;2024-02-04T09:16:30;8.30;;;1.87;;
13061;SDS011;6597;52.218;9.882;2024-02-04T09:18:58;8.67;;;1.97;;
13061;SDS011;6597;52.218;9.882;2024-02-04T09:21:24;6.20;;;1.73;;
13061;SDS011;6597;52.218;9.882;2024-02-04T09:23:51;15.27;;;2.63;;
13061;SDS011;6597;52.218;9.882;2024-02-04T09:26:18;9.60;;;2.30;;
13061;SDS011;6597;52.218;9.882;2024-02-04T09:28:45;14.73;;;2.33;;
13061;SDS011;6597;52.218;9.882;2024-02-04T09:31:11;6.47;;;1.83;;
13061;SDS011;6597;52.218;9.882;2024-02-04T09:33:38;7.67;;;2.13;;
13061;SDS011;6597;52.218;9.882;2024-02-04T09:36:07;9.13;;;2.27;;
13061;SDS011;6597;52.218;9.882;2024-02-04T09:38:34;9.57;;;2.80;;
13061;SDS011;6597;52.218;9.882;2024-02-04T09:41:00;9.10;;;2.20;;
13061;SDS011;6597;52.218;9.882;2024-02-04T09:43:29;11.27;;;2.63;;
13061;SDS011;6597;52.218;9.882;2024-02-04T09:45:57;7.60;;;1.90;;
13061;SDS011;6597;52.218;9.882;2024-02-04T09:48:24;6.13;;;2.00;;
13061;SDS011;6597;52.218;9.882;2024-02-04T09:50:52;6.80;;;1.70;;
13061;SDS011;6597;52.218;9.882;2024-02-04T09:53:21;9.47;;;2.00;;
13061;SDS011;6597;52.218;9.882;2024-02-04T09:55:54;10.20;;;2.13;;
13061;SDS011;6597;52.218;9.882;2024-02-04T09:58:22;6.57;;;1.80;;
13061;SDS011;6597;52.218;9.882;2024-02-04T10:00:49;6.37;;;1.63;;
13061;SDS011;6597;52.218;9.882;2024-02-04T10:03:17;7.37;;;1.67;;
13061;SDS011;6597;52.218;9.882;2024-02-04T10:05:46;13.93;;;2.10;;
13061;SDS011;6597;52.218;9.882;2024-02-04T10:08:12;7.53;;;2.00;;
13061;SDS011;6597;52.218;9.882;2024-02-04T10:10:41;8.07;;;1.97;;
13061;SDS011;6597;52.218;9.882;2024-02-04T10:13:08;8.83;;;2.30;;
13061;SDS011;6597;52.218;9.882;2024-02-04T10:15:35;9.70;;;2.40;;
13061;SDS011;6597;52.218;9.882;2024-02-04T10:18:02;15.67;;;2.63;;
13061;SDS011;6597;52.218;9.882;2024-02-04T10:20:30;11.20;;;2.60;;
13061;SDS011;6597;52.218;9.882;2024-02-04T10:22:57;10.10;;;2.53;;
13061;SDS011;6597;52.218;9.882;2024-02-04T10:25:23;11.40;;;3.20;;
13061;SDS011;6597;52.218;9.882;2024-02-04T10:27:51;9.77;;;2.33;;
13061;SDS011;6597;52.218;9.882;2024-02-04T10:30:19;11.07;;;2.93;;
13061;SDS011;6597;52.218;9.882;2024-02-04T10:32:46;12.57;;;2.60;;
13061;SDS011;6597;52.218;9.882;2024-02-04T10:35:13;6.43;;;1.83;;
13061;SDS011;6597;52.218;9.882;2024-02-04T10:37:40;7.30;;;2.33;;
13061;SDS011;6597;52.218;9.882;2024-02-04T10:40:07;9.73;;;1.97;;
13061;SDS011;6597;52.218;9.882;2024-02-04T10:42:34;12.80;;;2.50;;
13061;SDS011;6597;52.218;9.882;2024-02-04T10:45:03;12.50;;;2.37;;
13061;SDS011;6597;52.218;9.882;2024-02-04T10:47:35;9.80;;;2.07;;
13061;SDS011;6597;52.218;9.882;2024-02-04T10:50:03;9.43;;;2.07;;
13061;SDS011;6597;52.218;9.882;2024-02-04T10:52:32;18.63;;;3.37;;
13061;SDS011;6597;52.218;9.882;2024-02-04T10:55:03;12.37;;;2.27;;
13061;SDS011;6597;52.218;9.882;2024-02-04T10:57:33;11.13;;;2.40;;
13061;SDS011;6597;52.218;9.882;2024-02-04T11:00:01;14.40;;;2.70;;
13061;SDS011;6597;52.218;9.882;2024-02-04T11:02:35;8.80;;;2.23;;
13061;SDS011;6597;52.218;9.882;2024-02-04T11:05:02;13.87;;;2.67;;
13061;SDS011;6597;52.218;9.882;2024-02-04T11:07:31;13.83;;;2.70;;
13061;SDS011;6597;52.218;9.882;2024-02-04T11:09:59;8.93;;;2.30;;
13061;SDS011;6597;52.218;9.882;2024-02-04T11:12:26;16.47;;;3.00;;
13061;SDS011;6597;52.218;9.882;2024-02-04T11:14:54;8.90;;;1.93;;
13061;SDS011;6597;52.218;9.882;2024-02-04T11:17:39;14.40;;;2.80;;
13061;SDS011;6597;52.218;9.882;2024-02-04T11:20:23;11.47;;;2.17;;
13061;SDS011;6597;52.218;9.882;2024-02-04T11:26:09;15.83;;;2.60;;
13061;SDS011;6597;52.218;9.882;2024-02-04T11:28:37;15.47;;;2.63;;
13061;SDS011;6597;52.218;9.882;2024-02-04T11:31:04;13.93;;;2.47;;
13061;SDS011;6597;52.218;9.882;2024-02-04T11:33:32;9.33;;;2.00;;
13061;SDS011;6597;52.218;9.882;2024-02-04T11:35:59;17.30;;;2.93;;
13061;SDS011;6597;52.218;9.882;2024-02-04T11:38:35;14.23;;;2.60;;
13061;SDS011;6597;52.218;9.882;2024-02-04T11:41:03;9.97;;;1.87;;
13061;SDS011;6597;52.218;9.882;2024-02-04T11:43:32;24.47;;;2.90;;
13061;SDS011;6597;52.218;9.882;2024-02-04T11:45:59;13.57;;;2.60;;
13061;SDS011;6597;52.218;9.882;2024-02-04T11:48:28;9.83;;;1.87;;
13061;SDS011;6597;52.218;9.882;2024-02-04T11:50:57;12.57;;;2.40;;
13061;SDS011;6597;52.218;9.882;2024-02-04T11:53:25;8.67;;;2.20;;
13061;SDS011;6597;52.218;9.882;2024-02-04T11:55:54;13.23;;;2.67;;
13061;SDS011;6597;52.218;9.882;2024-02-04T11:58:20;13.87;;;2.70;;
13061;SDS011;6597;52.218;9.882;2024-02-04T12:00:47;10.77;;;1.93;;
13061;SDS011;6597;52.218;9.882;2024-02-04T12:03:14;11.13;;;2.20;;
13061;SDS011;6597;52.218;9.882;2024-02-04T12:05:41;13.40;;;2.20;;
13061;SDS011;6597;52.218;9.882;2024-02-04T12:08:10;16.40;;;2.43;;
13061;SDS011;6597;52.218;9.882;2024-02-04T12:10:38;14.57;;;2.50;;
13061;SDS011;6597;52.218;9.882;2024-02-04T12:13:06;8.93;;;1.80;;
13061;SDS011;6597;52.218;9.882;2024-02-04T12:15:33;13.80;;;2.30;;
13061;SDS011;6597;52.218;9.882;2024-02-04T12:18:07;11.10;;;2.03;;
13061;SDS011;6597;52.218;9.882;2024-02-04T12:20:34;17.53;;;2.83;;
13061;SDS011;6597;52.218;9.882;2024-02-04T12:23:01;17.03;;;2.57;;
13061;SDS011;6597;52.218;9.882;2024-02-04T12:25:30;15.80;;;2.17;;
13061;SDS011;6597;52.218;9.882;2024-02-04T12:27:57;13.17;;;2.07;;
13061;SDS011;6597;52.218;9.882;2024-02-04T12:30:24;14.57;;;2.20;;
13061;SDS011;6597;52.218;9.882;2024-02-04T12:32:55;7.00;;;1.47;;
13061;SDS011;6597;52.218;9.882;2024-02-04T12:35:23;5.30;;;1.30;;
13061;SDS011;6597;52.218;9.882;2024-02-04T12:37:50;14.57;;;2.20;;
13061;SDS011;6597;52.218;9.882;2024-02-04T12:40:20;8.00;;;1.30;;
13061;SDS011;6597;52.218;9.882;2024-02-04T12:42:52;11.80;;;2.13;;
13061;SDS011;6597;52.218;9.882;2024-02-04T12:45:20;15.50;;;2.50;;
13061;SDS011;6597;52.218;9.882;2024-02-04T12:47:48;11.77;;;2.10;;
13061;SDS011;6597;52.218;9.882;2024-02-04T12:50:15;9.07;;;1.77;;
13061;SDS011;6597;52.218;9.882;2024-02-04T12:52:43;10.83;;;1.80;;
13061;SDS011;6597;52.218;9.882;2024-02-04T12:55:19;12.87;;;2.07;;
13061;SDS011;6597;52.218;9.882;2024-02-04T12:57:46;12.00;;;2.10;;
13061;SDS011;6597;52.218;9.882;2024-02-04T13:00:17;10.30;;;1.87;;
13061;SDS011;6597;52.218;9.882;2024-02-04T13:02:44;9.77;;;2.00;;
13061;SDS011;6597;52.218;9.882;2024-02-04T13:05:20;9.23;;;1.70;;
13061;SDS011;6597;52.218;9.882;2024-02-04T13:07:50;9.07;;;1.70;;
13061;SDS011;6597;52.218;9.882;2024-02-04T13:10:18;16.47;;;2.50;;
13061;SDS011;6597;52.218;9.882;2024-02-04T13:12:44;6.00;;;1.50;;
13061;SDS011;6597;52.218;9.882;2024-02-04T13:15:12;11.07;;;2.13;;
13061;SDS011;6597;52.218;9.882;2024-02-04T13:17:40;11.07;;;1.90;;
13061;SDS011;6597;52.218;9.882;2024-02-04T13:20:06;10.33;;;1.93;;
13061;SDS011;6597;52.218;9.882;2024-02-04T13:22:34;12.87;;;2.17;;
13061;SDS011;6597;52.218;9.882;2024-02-04T13:25:01;10.33;;;1.90;;
13061;SDS011;6597;52.218;9.882;2024-02-04T13:27:27;12.57;;;2.03;;
13061;SDS011;6597;52.218;9.882;2024-02-04T13:29:54;10.43;;;1.70;;
13061;SDS011;6597;52.218;9.882;2024-02-04T13:32:20;15.50;;;2.50;;
13061;SDS011;6597;52.218;9.882;2024-02-04T13:34:48;9.70;;;1.93;;
13061;SDS011;6597;52.218;9.882;2024-02-04T13:37:16;7.93;;;1.40;;
13061;SDS011;6597;52.218;9.882;2024-02-04T13:39:42;8.30;;;1.80;;
13061;SDS011;6597;52.218;9.882;2024-02-04T13:42:10;13.43;;;2.30;;
13061;SDS011;6597;52.218;9.882;2024-02-04T13:44:36;14.27;;;2.50;;
13061;SDS011;6597;52.218;9.882;2024-02-04T13:47:03;11.10;;;2.20;;
13061;SDS011;6597;52.218;9.882;2024-02-04T13:49:30;14.17;;;2.30;;
13061;SDS011;6597;52.218;9.882;2024-02-04T13:51:58;10.47;;;2.10;;
13061;SDS011;6597;52.218;9.882;2024-02-04T13:54:24;11.27;;;2.20;;
13061;SDS011;6597;52.218;9.882;2024-02-04T13:56:51;11.47;;;2.30;;
13061;SDS011;6597;52.218;9.882;2024-02-04T13:59:17;10.10;;;2.17;;
13061;SDS011;6597;52.218;9.882;2024-02-04T14:01:44;12.53;;;2.40;;
13061;SDS011;6597;52.218;9.882;2024-02-04T14:04:10;8.53;;;2.10;;
13061;SDS011;6597;52.218;9.882;2024-02-04T14:06:37;15.00;;;2.77;;
13061;SDS011;6597;52.218;9.882;2024-02-04T14:09:05;12.60;;;2.27;;
13061;SDS011;6597;52.218;9.882;2024-02-04T14:11:31;13.20;;;2.50;;
13061;SDS011;6597;52.218;9.882;2024-02-04T14:13:58;15.40;;;3.03;;
13061;SDS011;6597;52.218;9.882;2024-02-04T14:16:24;13.23;;;3.27;;
13061;SDS011;6597;52.218;9.882;2024-02-04T14:18:51;12.50;;;2.53;;
13061;SDS011;6597;52.218;9.882;2024-02-04T14:21:17;13.87;;;2.90;;
13061;SDS011;6597;52.218;9.882;2024-02-04T14:23:44;13.00;;;2.93;;
13061;SDS011;6597;52.218;9.882;2024-02-04T14:26:17;11.63;;;2.50;;
13061;SDS011;6597;52.218;9.882;2024-02-04T14:28:43;15.00;;;3.37;;
13061;SDS011;6597;52.218;9.882;2024-02-04T14:31:10;11.23;;;2.53;;
13061;SDS011;6597;52.218;9.882;2024-02-04T14:33:37;15.57;;;3.30;;
13061;SDS011;6597;52.218;9.882;2024-02-04T14:36:05;10.93;;;2.87;;
13061;SDS011;6597;52.218;9.882;2024-02-04T14:38:32;11.67;;;2.80;;
13061;SDS011;6597;52.218;9.882;2024-02-04T14:41:01;13.43;;;3.03;;
13061;SDS011;6597;52.218;9.882;2024-02-04T14:43:29;13.30;;;3.67;;
13061;SDS011;6597;52.218;9.882;2024-02-04T14:45:56;13.43;;;3.73;;
13061;SDS011;6597;52.218;9.882;2024-02-04T14:48:23;11.43;;;2.90;;
13061;SDS011;6597;52.218;9.882;2024-02-04T14:50:49;18.67;;;3.83;;
13061;SDS011;6597;52.218;9.882;2024-02-04T14:53:16;16.40;;;3.30;;
13061;SDS011;6597;52.218;9.882;2024-02-04T14:55:43;12.93;;;2.97;;
13061;SDS011;6597;52.218;9.882;2024-02-04T14:58:09;10.27;;;2.63;;